Time;durP1;ratioP1;P1;durP2;ratioP2;P2;SDS_P1;SDS_P2;PMS_P1;PMS_P2;Temp;Humidity;BMP_temperature;BMP_pressure;BME280_temperature;BME280_humidity;BME280_pressure;Samples;Min_cycle;Max_cycle;Signal;HPM_P1;HPM_P2
2021/03/07 00:00:55;;;;;;;13.63;5.50;;;2.40;84.90;;;;;;5033135;28;20049;-38
2021/03/07 00:03:21;;;;;;;9.20;4.78;;;2.40;84.70;;;;;;5028559;28;20040;-38
2021/03/07 00:05:47;;;;;;;10.05;4.65;;;2.40;84.50;;;;;;5012379;28;20084;-38
2021/03/07 00:08:12;;;;;;;10.20;5.30;;;2.40;84.60;;;;;;5035803;28;20159;-38
2021/03/07 00:10:38;;;;;;;9.07;5.50;;;2.30;85.00;;;;;;5037054;28;20045;-38
2021/03/07 00:13:04;;;;;;;11.38;5.30;;;2.30;85.40;;;;;;5024627;28;20042;-38
2021/03/07 00:15:30;;;;;;;11.93;6.30;;;2.30;85.00;;;;;;5036751;28;20167;-38
2021/03/07 00:17:56;;;;;;;9.13;5.05;;;2.30;85.40;;;;;;5010388;28;20056;-38
2021/03/07 00:20:22;;;;;;;8.32;5.20;;;2.20;85.20;;;;;;5032843;28;20045;-38
2021/03/07 00:22:48;;;;;;;11.15;5.22;;;2.10;85.50;;;;;;5032544;28;20116;-38
2021/03/07 00:25:18;;;;;;;9.25;5.43;;;2.10;85.60;;;;;;5027636;28;20073;-38
2021/03/07 00:27:45;;;;;;;12.07;5.05;;;2.00;85.40;;;;;;5005257;28;20576;-38
2021/03/07 00:30:15;;;;;;;7.90;5.00;;;1.90;85.20;;;;;;5025848;28;20464;-38
2021/03/07 00:32:42;;;;;;;9.52;6.05;;;1.90;85.40;;;;;;5025375;28;20598;-38
2021/03/07 00:35:09;;;;;;;10.75;5.60;;;1.90;85.40;;;;;;5027098;28;20057;-37
2021/03/07 00:37:35;;;;;;;8.38;5.22;;;1.90;85.70;;;;;;5034900;28;20079;-38
2021/03/07 00:40:02;;;;;;;13.48;5.57;;;1.80;85.70;;;;;;5040570;28;20052;-38
2021/03/07 00:42:28;;;;;;;8.50;5.57;;;1.80;86.00;;;;;;5027119;28;20103;-38
2021/03/07 00:44:54;;;;;;;10.82;6.85;;;1.90;86.80;;;;;;5023431;28;20543;-38
2021/03/07 00:47:20;;;;;;;14.15;6.18;;;1.90;87.70;;;;;;5038458;28;20481;-38
2021/03/07 00:49:46;;;;;;;9.48;5.35;;;1.90;86.80;;;;;;5026724;28;20551;-37
2021/03/07 00:52:12;;;;;;;12.35;5.82;;;1.90;87.30;;;;;;5010702;28;20053;-38
2021/03/07 00:54:55;;;;;;;10.50;6.10;;;1.90;87.00;;;;;;5032149;28;20459;-38
2021/03/07 00:57:21;;;;;;;8.15;5.30;;;2.00;88.00;;;;;;5042188;28;20049;-38
2021/03/07 00:59:47;;;;;;;8.60;5.35;;;2.00;87.40;;;;;;5035961;28;20551;-38
2021/03/07 01:02:13;;;;;;;11.07;5.57;;;2.00;86.80;;;;;;5037125;28;20045;-38
2021/03/07 01:04:39;;;;;;;12.05;5.72;;;2.00;88.10;;;;;;5040526;28;20122;-38
2021/03/07 01:07:04;;;;;;;9.27;5.32;;;2.00;87.40;;;;;;5036956;28;20531;-38
2021/03/07 01:09:31;;;;;;;7.50;5.20;;;1.90;86.90;;;;;;5027515;28;20040;-38
2021/03/07 01:11:56;;;;;;;8.98;4.97;;;2.00;87.20;;;;;;5041400;28;20044;-38
2021/03/07 01:14:22;;;;;;;8.52;5.65;;;1.90;86.70;;;;;;5024383;28;20041;-38
2021/03/07 01:16:48;;;;;;;12.05;5.55;;;1.90;86.20;;;;;;5031101;28;20055;-38
2021/03/07 01:19:14;;;;;;;9.93;5.47;;;1.80;87.50;;;;;;5028805;28;20424;-38
2021/03/07 01:21:39;;;;;;;8.13;5.78;;;1.80;87.70;;;;;;5028170;28;20041;-37
2021/03/07 01:24:43;;;;;;;11.93;5.53;;;1.80;88.00;;;;;;5031879;28;20493;-38
2021/03/07 01:27:08;;;;;;;12.35;5.93;;;1.80;89.40;;;;;;5030140;28;20045;-38
2021/03/07 01:29:35;;;;;;;11.02;5.72;;;1.80;89.00;;;;;;5040019;28;20033;-37
2021/03/07 01:32:00;;;;;;;9.65;5.35;;;1.90;88.40;;;;;;5030403;28;20091;-37
2021/03/07 01:34:26;;;;;;;11.25;5.63;;;1.90;87.60;;;;;;5023014;28;20483;-37
2021/03/07 01:36:52;;;;;;;10.90;6.07;;;1.90;88.00;;;;;;5031619;28;21102;-37
2021/03/07 01:39:18;;;;;;;11.45;5.43;;;1.90;88.90;;;;;;5039841;28;20051;-37
2021/03/07 01:42:11;;;;;;;8.15;5.22;;;1.90;87.90;;;;;;5025823;28;20058;-37
2021/03/07 01:44:37;;;;;;;10.00;5.57;;;1.80;87.30;;;;;;5027422;22;20065;-37
2021/03/07 01:47:04;;;;;;;7.95;4.80;;;1.70;87.90;;;;;;4998637;28;20054;-37
2021/03/07 01:49:30;;;;;;;12.60;5.63;;;1.70;88.10;;;;;;5003601;28;20454;-38
2021/03/07 01:51:56;;;;;;;9.65;5.13;;;1.60;88.70;;;;;;4996511;28;20141;-38
2021/03/07 01:54:44;;;;;;;7.38;4.90;;;1.50;88.50;;;;;;4985128;28;20101;-38
2021/03/07 01:57:11;;;;;;;13.15;5.88;;;1.60;88.60;;;;;;5009804;28;20092;-38
2021/03/07 01:59:38;;;;;;;8.90;4.82;;;1.50;88.30;;;;;;5008823;28;20060;-38
2021/03/07 02:02:05;;;;;;;10.25;5.65;;;1.40;88.50;;;;;;4985359;28;20231;-38
2021/03/07 02:05:08;;;;;;;14.30;5.15;;;1.30;87.90;;;;;;5008963;28;20048;-38
2021/03/07 02:07:41;;;;;;;9.68;5.95;;;1.20;88.00;;;;;;5013085;28;20045;-38
2021/03/07 02:10:10;;;;;;;8.57;5.45;;;1.10;87.80;;;;;;4999742;28;20048;-38
2021/03/07 02:12:36;;;;;;;12.48;6.05;;;1.00;87.70;;;;;;5005235;28;20096;-38
2021/03/07 02:15:06;;;;;;;10.98;6.90;;;0.90;88.10;;;;;;5005273;28;20050;-38
2021/03/07 02:17:33;;;;;;;15.82;7.00;;;0.90;88.20;;;;;;5017537;28;20042;-38
2021/03/07 02:19:59;;;;;;;11.80;7.57;;;0.80;88.50;;;;;;5020646;28;20394;-38
2021/03/07 02:22:34;;;;;;;11.27;8.60;;;0.80;89.10;;;;;;5013202;28;20590;-38
2021/03/07 02:25:00;;;;;;;15.15;11.10;;;0.70;90.40;;;;;;5017322;28;20049;-38
2021/03/07 02:27:26;;;;;;;13.32;9.68;;;0.70;90.30;;;;;;5021809;28;20046;-38
2021/03/07 02:29:53;;;;;;;23.35;11.13;;;0.60;90.40;;;;;;5007466;28;20053;-38
2021/03/07 02:32:21;;;;;;;15.40;10.50;;;0.60;90.50;;;;;;5004344;28;20050;-38
2021/03/07 02:35:05;;;;;;;12.30;9.38;;;0.50;90.30;;;;;;5010745;28;20046;-38
2021/03/07 02:37:48;;;;;;;16.38;9.82;;;0.50;90.20;;;;;;5020440;28;20144;-38
2021/03/07 02:40:16;;;;;;;17.40;10.07;;;0.50;90.10;;;;;;5008210;28;20053;-38
2021/03/07 02:42:46;;;;;;;15.55;10.18;;;0.40;90.00;;;;;;5015174;28;20871;-38
2021/03/07 02:45:17;;;;;;;14.52;10.40;;;0.30;89.70;;;;;;5014928;28;20762;-38
2021/03/07 02:47:46;;;;;;;12.23;9.90;;;0.30;88.80;;;;;;5002474;28;20486;-38
2021/03/07 02:50:33;;;;;;;12.25;9.93;;;0.20;89.10;;;;;;5013227;28;20045;-38
2021/03/07 02:53:04;;;;;;;14.02;9.73;;;0.10;88.80;;;;;;5018157;28;20042;-37
2021/03/07 02:55:33;;;;;;;17.00;10.15;;;0.10;89.80;;;;;;5009053;28;20042;-38
2021/03/07 02:58:08;;;;;;;11.93;9.10;;;0.00;90.10;;;;;;5019167;28;20049;-38
2021/03/07 03:00:38;;;;;;;14.68;10.40;;;0.00;90.40;;;;;;5008161;28;20050;-38
2021/03/07 03:03:11;;;;;;;15.43;9.13;;;0.00;90.50;;;;;;5015828;28;20120;-37
2021/03/07 03:05:39;;;;;;;20.55;11.65;;;0.00;90.30;;;;;;5014922;28;20056;-38
2021/03/07 03:08:05;;;;;;;15.25;11.25;;;0.00;90.70;;;;;;5016332;28;20061;-38
2021/03/07 03:10:32;;;;;;;14.77;11.27;;;0.00;90.80;;;;;;5021848;28;20386;-38
2021/03/07 03:13:14;;;;;;;18.08;13.00;;;0.20;91.30;;;;;;5016306;28;20048;-38
2021/03/07 03:15:40;;;;;;;17.13;12.75;;;0.30;91.40;;;;;;5012472;28;20121;-38
2021/03/07 03:18:07;;;;;;;21.65;15.63;;;0.30;91.50;;;;;;4996323;28;20052;-38
2021/03/07 03:20:34;;;;;;;21.30;16.02;;;0.40;91.30;;;;;;5021033;28;20053;-38
2021/03/07 03:23:00;;;;;;;16.83;14.50;;;0.50;91.50;;;;;;5015846;28;20334;-39
2021/03/07 03:25:41;;;;;;;18.80;14.77;;;0.50;91.30;;;;;;4991916;28;20041;-38
2021/03/07 03:28:07;;;;;;;16.10;14.13;;;0.60;91.70;;;;;;5007342;28;20058;-38
2021/03/07 03:30:35;;;;;;;18.02;11.70;;;0.60;91.40;;;;;;5005247;28;20046;-38
2021/03/07 03:33:01;;;;;;;14.30;10.60;;;0.60;91.40;;;;;;4992733;28;20466;-37
2021/03/07 03:35:26;;;;;;;12.60;8.57;;;0.70;91.20;;;;;;5008886;28;20045;-38
2021/03/07 03:44:46;;;;;;;10.90;7.00;;;0.90;91.30;;;;;;5001632;28;20136;-38
2021/03/07 03:47:15;;;;;;;8.77;6.15;;;0.90;90.90;;;;;;4975887;28;20049;-38
2021/03/07 03:49:55;;;;;;;11.68;6.88;;;1.00;90.70;;;;;;5018666;28;20157;-38
2021/03/07 03:52:22;;;;;;;8.88;6.05;;;1.00;91.10;;;;;;5004690;28;20186;-37
2021/03/07 03:54:58;;;;;;;11.90;6.28;;;1.00;90.90;;;;;;5006933;28;20127;-38
2021/03/07 03:57:30;;;;;;;9.85;5.57;;;1.10;90.80;;;;;;4987962;28;20050;-39
2021/03/07 03:59:57;;;;;;;9.37;5.00;;;1.10;90.60;;;;;;5016118;28;20433;-38
2021/03/07 04:02:26;;;;;;;8.88;5.03;;;1.10;90.80;;;;;;5019845;28;20366;-38
2021/03/07 04:04:57;;;;;;;8.73;5.95;;;1.10;90.30;;;;;;5014890;28;20057;-38
2021/03/07 04:07:33;;;;;;;12.05;5.38;;;1.20;90.20;;;;;;4998898;28;20533;-38
2021/03/07 04:10:00;;;;;;;9.73;5.38;;;1.20;90.20;;;;;;5002072;28;20041;-38
2021/03/07 04:12:32;;;;;;;11.20;5.65;;;1.20;90.50;;;;;;5021937;28;20828;-38
2021/03/07 04:14:59;;;;;;;7.22;4.30;;;1.30;90.50;;;;;;5013030;28;20782;-38
2021/03/07 04:17:26;;;;;;;12.90;5.53;;;1.20;90.50;;;;;;4998686;28;20123;-38
2021/03/07 04:19:53;;;;;;;9.35;5.13;;;1.20;90.50;;;;;;4989515;28;20057;-38
2021/03/07 04:22:20;;;;;;;8.40;4.57;;;1.20;90.30;;;;;;5011570;28;20050;-38
2021/03/07 04:24:46;;;;;;;10.27;5.40;;;1.20;90.20;;;;;;5006667;28;20144;-38
2021/03/07 04:27:34;;;;;;;8.90;5.82;;;1.30;90.30;;;;;;5021002;28;20050;-38
2021/03/07 04:30:01;;;;;;;8.32;5.15;;;1.30;90.60;;;;;;5000416;28;20037;-38
2021/03/07 04:32:28;;;;;;;11.32;5.70;;;1.40;90.30;;;;;;5006531;28;20053;-38
2021/03/07 04:34:54;;;;;;;6.70;4.70;;;1.40;90.20;;;;;;5004739;28;20042;-38
2021/03/07 04:37:20;;;;;;;6.97;3.95;;;1.40;90.00;;;;;;5006344;28;20053;-38
2021/03/07 04:39:46;;;;;;;10.13;4.25;;;1.50;90.10;;;;;;5006926;28;20100;-38
2021/03/07 04:42:12;;;;;;;6.22;3.70;;;1.60;90.00;;;;;;4993475;28;20151;-37
2021/03/07 04:44:44;;;;;;;10.05;4.45;;;1.60;90.00;;;;;;5006103;28;20487;-38
2021/03/07 04:47:38;;;;;;;9.68;4.32;;;1.60;90.20;;;;;;5017380;28;20049;-39
2021/03/07 04:50:05;;;;;;;7.28;4.38;;;1.60;90.00;;;;;;5014393;28;20048;-38
2021/03/07 04:56:12;;;;;;;8.15;4.07;;;1.70;90.00;;;;;;5010679;28;20056;-39
2021/03/07 04:58:38;;;;;;;7.35;4.07;;;1.60;89.70;;;;;;4992142;28;20045;-38
2021/03/07 05:01:04;;;;;;;6.65;4.20;;;1.70;89.50;;;;;;5005307;28;20057;-38
2021/03/07 05:03:31;;;;;;;7.38;4.22;;;1.70;89.90;;;;;;5008810;28;20076;-36
2021/03/07 05:06:11;;;;;;;7.43;3.97;;;1.70;89.60;;;;;;5005181;28;20137;-36
2021/03/07 05:08:37;;;;;;;7.60;4.55;;;1.70;89.50;;;;;;5009482;28;20120;-36
2021/03/07 05:11:03;;;;;;;6.15;3.92;;;1.70;89.60;;;;;;5009223;28;20045;-37
2021/03/07 05:13:29;;;;;;;7.32;4.13;;;1.70;89.30;;;;;;5020877;28;20429;-36
2021/03/07 05:15:54;;;;;;;5.72;3.67;;;1.70;89.20;;;;;;4991182;28;20157;-36
2021/03/07 05:18:20;;;;;;;6.55;3.97;;;1.80;89.20;;;;;;5014668;28;20095;-36
2021/03/07 05:20:46;;;;;;;7.55;4.18;;;1.80;89.50;;;;;;5009370;28;20049;-38
2021/03/07 05:26:38;;;;;;;7.88;4.13;;;1.80;89.40;;;;;;5013238;28;20073;-36
2021/03/07 05:29:03;;;;;;;7.15;4.05;;;1.80;89.40;;;;;;5010918;28;20042;-37
2021/03/07 05:31:29;;;;;;;8.45;4.35;;;1.80;88.90;;;;;;5012765;28;20045;-38
2021/03/07 05:34:07;;;;;;;9.40;4.07;;;1.80;89.20;;;;;;5004450;28;20038;-37
2021/03/07 05:36:33;;;;;;;7.85;4.70;;;1.90;89.40;;;;;;5012685;28;20037;-37
2021/03/07 05:38:59;;;;;;;7.55;4.30;;;1.90;89.20;;;;;;5005849;28;20069;-37
2021/03/07 05:41:25;;;;;;;8.02;4.13;;;1.90;89.10;;;;;;5011981;28;20115;-38
2021/03/07 05:43:51;;;;;;;6.53;4.03;;;2.00;89.30;;;;;;4996516;28;20044;-37
2021/03/07 05:46:18;;;;;;;6.50;3.63;;;1.90;89.10;;;;;;5015769;28;20518;-38
2021/03/07 05:48:44;;;;;;;7.68;3.78;;;1.90;88.60;;;;;;5007934;28;20065;-37
2021/03/07 05:51:14;;;;;;;6.82;3.38;;;2.00;88.70;;;;;;4995568;28;20053;-37
2021/03/07 05:53:51;;;;;;;7.28;4.20;;;2.00;88.20;;;;;;5020454;28;20561;-37
2021/03/07 05:56:17;;;;;;;9.60;4.18;;;2.00;88.40;;;;;;4993786;28;20041;-37
2021/03/07 05:58:45;;;;;;;6.05;3.30;;;2.00;88.20;;;;;;5006364;28;20061;-39
2021/03/07 06:01:11;;;;;;;6.20;3.30;;;2.00;88.80;;;;;;5006677;28;20142;-38
2021/03/07 06:03:46;;;;;;;5.80;3.70;;;2.00;88.50;;;;;;5016527;28;20457;-38
2021/03/07 06:06:12;;;;;;;5.47;3.78;;;2.00;88.30;;;;;;5003920;28;20388;-38
2021/03/07 06:08:38;;;;;;;7.70;3.28;;;2.00;88.50;;;;;;5007370;28;20478;-38
2021/03/07 06:11:29;;;;;;;7.10;3.70;;;2.00;87.70;;;;;;4988224;28;20057;-38
2021/03/07 06:13:55;;;;;;;9.07;4.00;;;2.00;88.50;;;;;;4986833;28;20042;-38
2021/03/07 06:16:21;;;;;;;8.07;3.85;;;2.00;88.10;;;;;;5013610;28;20042;-38
2021/03/07 06:18:47;;;;;;;5.50;3.55;;;2.00;88.10;;;;;;5006274;28;20195;-38
2021/03/07 06:21:33;;;;;;;6.13;3.38;;;2.00;88.00;;;;;;5004694;28;20502;-38
2021/03/07 06:24:52;;;;;;;5.20;3.33;;;2.00;87.80;;;;;;5012111;28;20545;-38
2021/03/07 06:27:18;;;;;;;7.25;3.30;;;2.00;87.80;;;;;;5014253;28;20136;-38
2021/03/07 06:30:01;;;;;;;5.35;3.20;;;2.00;87.10;;;;;;5013707;28;20049;-38
2021/03/07 06:32:36;;;;;;;6.68;3.40;;;2.10;87.20;;;;;;4999589;28;20050;-38
2021/03/07 06:35:05;;;;;;;6.40;3.33;;;2.10;87.50;;;;;;5008499;28;20100;-38
2021/03/07 06:37:31;;;;;;;6.78;3.38;;;2.10;87.50;;;;;;5017176;28;20124;-38
2021/03/07 06:39:56;;;;;;;4.43;2.85;;;2.10;87.20;;;;;;5003546;28;20148;-38
2021/03/07 06:42:23;;;;;;;6.18;3.40;;;2.10;86.80;;;;;;5015327;28;20056;-38
2021/03/07 06:45:00;;;;;;;4.63;3.03;;;2.20;86.90;;;;;;5017852;28;20128;-38
2021/03/07 06:47:28;;;;;;;5.32;2.88;;;2.20;86.80;;;;;;5025616;28;20122;-39
2021/03/07 06:50:10;;;;;;;7.88;3.83;;;2.20;86.50;;;;;;5012449;28;20045;-38
2021/03/07 06:52:56;;;;;;;6.70;3.40;;;2.30;86.50;;;;;;4991004;28;20053;-38
2021/03/07 06:56:01;;;;;;;6.50;3.38;;;2.30;86.20;;;;;;5010482;28;20144;-37
2021/03/07 06:59:17;;;;;;;4.63;2.70;;;2.30;85.70;;;;;;4994791;28;20100;-38
2021/03/07 07:01:52;;;;;;;4.32;2.78;;;2.30;85.20;;;;;;5001369;28;20076;-38
2021/03/07 07:04:20;;;;;;;5.65;3.38;;;2.40;85.90;;;;;;4997921;28;20061;-38
2021/03/07 07:07:03;;;;;;;5.53;3.00;;;2.30;85.20;;;;;;5009091;28;20045;-38
2021/03/07 07:09:29;;;;;;;3.67;2.90;;;2.40;85.50;;;;;;5004120;28;20042;-38
2021/03/07 07:11:55;;;;;;;15.43;9.82;;;2.40;85.40;;;;;;5006285;28;20409;-34
2021/03/07 07:14:35;;;;;;;6.22;4.20;;;2.40;85.70;;;;;;5003056;28;20160;-34
2021/03/07 07:17:01;;;;;;;5.63;2.97;;;2.50;85.90;;;;;;5004265;28;20045;-34
2021/03/07 07:19:27;;;;;;;5.75;3.22;;;2.50;85.80;;;;;;5002833;28;20045;-35
2021/03/07 07:21:53;;;;;;;6.40;2.92;;;2.50;85.10;;;;;;5002808;28;20054;-35
2021/03/07 07:24:18;;;;;;;7.40;3.58;;;2.50;84.90;;;;;;4958863;28;20054;-34
2021/03/07 07:26:45;;;;;;;12.10;3.42;;;2.50;85.00;;;;;;4983892;28;20053;-35
2021/03/07 07:29:12;;;;;;;7.10;3.67;;;2.60;85.30;;;;;;5000274;28;20053;-50
2021/03/07 07:31:54;;;;;;;10.95;4.15;;;2.50;85.70;;;;;;5006534;28;20049;-57
2021/03/07 07:34:24;;;;;;;;;;;2.60;85.40;;;;;;5004162;28;20509;-53
2021/03/07 07:36:55;;;;;;;7.63;3.80;;;2.60;85.20;;;;;;4989117;28;19926;-53
2021/03/07 07:39:33;;;;;;;7.15;2.65;;;2.60;84.80;;;;;;4985233;28;20235;-51
2021/03/07 07:42:37;;;;;;;6.18;2.97;;;2.60;84.50;;;;;;4987190;28;20637;-53
2021/03/07 07:45:09;;;;;;;5.78;2.85;;;2.70;84.30;;;;;;4988176;28;20053;-55
2021/03/07 07:47:46;;;;;;;6.10;3.22;;;2.70;83.80;;;;;;5004734;28;20498;-50
2021/03/07 07:50:27;;;;;;;6.38;3.17;;;2.80;83.90;;;;;;5004186;28;20057;-50
2021/03/07 07:52:53;;;;;;;6.38;2.67;;;2.80;83.10;;;;;;4977154;28;20075;-54
2021/03/07 07:55:19;;;;;;;6.60;3.25;;;2.80;83.60;;;;;;4983042;28;20042;-54
2021/03/07 07:57:50;;;;;;;6.00;3.75;;;2.80;83.20;;;;;;4974103;28;20065;-55
2021/03/07 08:00:17;;;;;;;4.60;3.10;;;2.90;82.70;;;;;;4988352;28;20046;-50
2021/03/07 08:02:47;;;;;;;4.75;3.40;;;2.90;82.60;;;;;;4990599;28;20409;-58
2021/03/07 08:05:26;;;;;;;14.10;9.52;;;2.90;82.60;;;;;;5003424;28;20046;-51
2021/03/07 08:07:56;;;;;;;9.45;6.18;;;3.10;82.30;;;;;;4997887;28;20207;-53
2021/03/07 08:10:54;;;;;;;6.55;3.67;;;3.10;81.70;;;;;;4997984;28;20069;-51
2021/03/07 08:13:28;;;;;;;5.82;3.53;;;3.10;81.00;;;;;;4943093;28;21049;-53
2021/03/07 08:15:55;;;;;;;7.80;4.10;;;3.10;81.30;;;;;;4930197;28;20073;-36
2021/03/07 08:18:23;;;;;;;5.18;3.63;;;3.20;81.00;;;;;;4930903;29;20059;-37
2021/03/07 08:20:51;;;;;;;5.45;3.75;;;3.20;80.40;;;;;;4931037;29;20106;-37
2021/03/07 08:23:21;;;;;;;5.47;3.25;;;3.20;80.30;;;;;;4919606;29;20062;-37
2021/03/07 08:25:50;;;;;;;5.38;3.55;;;3.30;79.40;;;;;;4913646;29;20059;-35
2021/03/07 08:28:28;;;;;;;6.45;3.30;;;3.30;79.70;;;;;;4925749;29;20051;-36
2021/03/07 08:30:58;;;;;;;19.55;13.82;;;3.30;79.20;;;;;;4925042;29;20142;-34
2021/03/07 08:33:29;;;;;;;16.13;11.45;;;3.30;79.80;;;;;;4914838;29;20799;-34
2021/03/07 08:36:13;;;;;;;10.07;4.40;;;3.40;79.40;;;;;;4933654;28;20061;-35
2021/03/07 08:38:48;;;;;;;5.45;3.90;;;3.50;78.60;;;;;;4925793;28;20066;-36
2021/03/07 08:41:16;;;;;;;6.63;3.78;;;3.50;77.70;;;;;;4936276;28;20095;-36
2021/03/07 08:43:45;;;;;;;7.32;3.22;;;3.50;77.40;;;;;;4914683;29;20148;-36
2021/03/07 08:46:16;;;;;;;5.45;3.90;;;3.60;78.20;;;;;;4911559;29;20143;-36
2021/03/07 08:48:51;;;;;;;5.78;3.25;;;3.50;78.40;;;;;;4936279;28;20061;-36
2021/03/07 08:51:19;;;;;;;4.95;3.75;;;3.50;79.10;;;;;;4948948;28;20062;-36
2021/03/07 08:53:46;;;;;;;8.13;3.38;;;3.50;77.40;;;;;;4935132;28;20070;-36
2021/03/07 08:56:13;;;;;;;6.53;3.55;;;3.50;77.80;;;;;;4965834;28;20459;-37
2021/03/07 08:58:40;;;;;;;8.05;3.72;;;3.50;78.20;;;;;;4925721;29;20054;-36
2021/03/07 09:01:07;;;;;;;12.25;3.75;;;3.60;78.70;;;;;;4957525;28;20062;-36
2021/03/07 09:03:33;;;;;;;5.43;3.38;;;3.50;78.80;;;;;;4930226;29;20110;-36
2021/03/07 09:06:08;;;;;;;5.63;3.95;;;3.60;79.10;;;;;;4949189;28;20449;-36
2021/03/07 09:08:34;;;;;;;6.28;3.35;;;3.60;78.40;;;;;;4955488;28;20058;-36
2021/03/07 09:11:00;;;;;;;4.57;3.65;;;3.60;78.10;;;;;;4929620;29;20055;-36
2021/03/07 09:13:27;;;;;;;6.07;3.45;;;3.60;78.50;;;;;;4957942;28;20093;-36
2021/03/07 09:15:59;;;;;;;7.05;3.45;;;3.70;78.10;;;;;;4947990;28;20051;-36
2021/03/07 09:18:32;;;;;;;6.97;4.10;;;3.70;78.40;;;;;;4949726;28;20138;-36
2021/03/07 09:21:03;;;;;;;5.35;4.00;;;3.80;78.10;;;;;;4939425;28;20066;-36
2021/03/07 09:23:45;;;;;;;6.90;4.32;;;3.80;76.90;;;;;;4946530;28;20070;-36
2021/03/07 09:26:19;;;;;;;7.75;5.10;;;3.90;76.10;;;;;;4962603;28;20401;-36
2021/03/07 09:28:48;;;;;;;4.93;3.50;;;3.90;75.90;;;;;;4958055;28;20055;-37
2021/03/07 09:31:38;;;;;;;5.57;4.00;;;4.00;75.20;;;;;;4946269;28;21027;-36
2021/03/07 09:34:05;;;;;;;5.18;3.90;;;4.00;75.00;;;;;;4952600;28;20055;-36
2021/03/07 09:36:40;;;;;;;9.93;4.38;;;4.00;74.40;;;;;;4964472;28;20376;-36
2021/03/07 09:39:08;;;;;;;6.57;4.55;;;4.00;74.10;;;;;;4928701;28;20065;-36
2021/03/07 09:41:35;;;;;;;8.15;4.35;;;4.20;73.70;;;;;;4945484;28;20107;-36
2021/03/07 09:44:09;;;;;;;6.68;5.05;;;4.10;73.80;;;;;;4946645;28;20045;-36
2021/03/07 09:46:35;;;;;;;11.65;5.70;;;4.10;73.80;;;;;;4981667;28;20073;-36
2021/03/07 09:49:07;;;;;;;7.43;5.43;;;4.10;72.70;;;;;;4969559;28;20049;-36
2021/03/07 09:51:36;;;;;;;8.45;5.90;;;4.10;72.30;;;;;;4973810;28;20061;-36
2021/03/07 09:54:04;;;;;;;10.75;6.35;;;4.20;72.80;;;;;;4975941;28;20089;-36
2021/03/07 09:56:35;;;;;;;7.10;5.90;;;4.20;72.20;;;;;;4948376;28;20081;-36
2021/03/07 09:59:17;;;;;;;8.82;6.28;;;4.20;70.90;;;;;;4949107;28;20046;-36
2021/03/07 10:01:52;;;;;;;8.75;6.18;;;4.30;70.70;;;;;;4966686;28;20055;-36
2021/03/07 10:04:34;;;;;;;10.07;5.70;;;4.30;70.50;;;;;;4968128;28;20046;-36
2021/03/07 10:07:16;;;;;;;8.77;6.38;;;4.30;69.90;;;;;;4964999;28;20093;-36
2021/03/07 10:10:01;;;;;;;10.52;6.70;;;4.30;69.60;;;;;;4964523;28;20118;-36
2021/03/07 10:12:45;;;;;;;9.18;7.13;;;4.40;69.10;;;;;;4964891;28;20054;-36
2021/03/07 10:15:21;;;;;;;8.45;6.55;;;4.40;68.30;;;;;;4945399;28;20408;-36
2021/03/07 10:17:47;;;;;;;10.77;6.90;;;4.40;68.60;;;;;;4983898;28;20414;-35
2021/03/07 10:20:13;;;;;;;8.82;6.40;;;4.50;68.80;;;;;;4983714;28;20050;-36
2021/03/07 10:22:44;;;;;;;10.43;7.38;;;4.50;69.00;;;;;;4981629;28;20046;-36
2021/03/07 10:25:26;;;;;;;11.60;7.67;;;4.50;68.40;;;;;;4973645;28;20066;-35
2021/03/07 10:27:54;;;;;;;12.38;6.53;;;4.60;69.00;;;;;;4965213;28;20190;-36
2021/03/07 10:30:42;;;;;;;7.78;6.32;;;4.70;69.40;;;;;;4970753;28;20129;-36
2021/03/07 10:33:16;;;;;;;12.45;6.63;;;4.80;67.50;;;;;;4961619;28;20050;-35
2021/03/07 10:36:01;;;;;;;9.88;6.95;;;5.00;67.20;;;;;;4967645;28;20543;-37
2021/03/07 10:38:29;;;;;;;14.65;6.60;;;5.10;65.60;;;;;;4969328;28;20770;-36
2021/03/07 10:40:56;;;;;;;8.43;5.85;;;5.30;66.70;;;;;;4949303;28;20142;-35
2021/03/07 10:43:22;;;;;;;8.98;7.07;;;5.40;65.60;;;;;;4971456;28;20507;-36
2021/03/07 10:45:48;;;;;;;10.13;6.78;;;5.50;63.70;;;;;;4975926;28;20725;-36
2021/03/07 10:48:15;;;;;;;11.45;6.90;;;5.70;64.20;;;;;;4969386;28;20212;-36
2021/03/07 10:50:46;;;;;;;10.68;7.43;;;5.70;61.90;;;;;;4968496;28;20046;-36
2021/03/07 10:53:13;;;;;;;12.63;7.97;;;5.80;64.00;;;;;;4969167;28;20622;-35
2021/03/07 10:55:39;;;;;;;9.50;7.07;;;5.80;61.60;;;;;;4968210;28;20046;-36
2021/03/07 10:58:06;;;;;;;10.98;7.13;;;5.90;63.50;;;;;;4963837;28;20039;-36
2021/03/07 11:00:32;;;;;;;9.82;8.52;;;5.90;61.80;;;;;;4967814;28;20034;-36
2021/03/07 11:02:59;;;;;;;10.90;9.50;;;5.90;63.10;;;;;;4968087;28;20050;-36
2021/03/07 11:05:25;;;;;;;11.40;8.93;;;5.90;60.60;;;;;;4951539;28;20483;-36
2021/03/07 11:07:51;;;;;;;17.23;13.07;;;5.80;60.80;;;;;;4952448;28;20047;-36
2021/03/07 11:10:20;;;;;;;10.95;9.85;;;5.70;60.60;;;;;;4974606;28;20043;-36
2021/03/07 11:12:46;;;;;;;15.13;9.80;;;5.70;60.50;;;;;;4954537;28;20051;-36
2021/03/07 11:15:12;;;;;;;12.77;11.50;;;5.80;60.70;;;;;;4969552;28;20054;-36
2021/03/07 11:17:38;;;;;;;14.77;10.70;;;5.70;59.90;;;;;;4968642;28;20055;-36
2021/03/07 11:20:06;;;;;;;13.23;10.38;;;5.80;61.30;;;;;;4951579;28;20050;-36
2021/03/07 11:22:32;;;;;;;12.48;9.85;;;5.70;60.60;;;;;;4958567;28;20058;-36
2021/03/07 11:24:58;;;;;;;13.43;10.43;;;5.80;61.90;;;;;;4947433;28;20043;-35
2021/03/07 11:27:24;;;;;;;11.82;9.95;;;5.80;61.80;;;;;;4963772;28;20074;-35
2021/03/07 11:29:50;;;;;;;12.15;10.02;;;5.80;61.30;;;;;;4953061;28;20519;-35
2021/03/07 11:32:16;;;;;;;12.57;11.27;;;5.80;61.30;;;;;;4943135;28;20480;-35
2021/03/07 11:34:42;;;;;;;16.30;11.27;;;5.90;62.50;;;;;;4966271;28;20038;-35
2021/03/07 11:37:08;;;;;;;13.15;11.13;;;5.80;61.10;;;;;;4967705;28;20523;-35
2021/03/07 11:39:34;;;;;;;12.63;10.30;;;6.00;62.10;;;;;;4940671;28;20055;-36
2021/03/07 11:42:00;;;;;;;13.10;10.73;;;6.10;61.40;;;;;;4965120;28;20491;-35
2021/03/07 11:44:26;;;;;;;13.98;11.48;;;6.20;61.10;;;;;;4970092;28;20047;-36
2021/03/07 11:46:53;;;;;;;16.50;11.65;;;6.20;60.20;;;;;;4938989;28;20110;-35
2021/03/07 11:49:22;;;;;;;14.38;10.35;;;6.20;59.70;;;;;;4960083;28;20043;-35
2021/03/07 11:51:49;;;;;;;12.55;11.25;;;6.30;59.60;;;;;;4965053;28;20163;-36
2021/03/07 11:54:14;;;;;;;12.77;11.20;;;6.40;60.70;;;;;;4957430;28;20535;-36
2021/03/07 11:56:40;;;;;;;15.98;11.05;;;6.50;59.50;;;;;;4960041;28;20130;-36
2021/03/07 11:59:07;;;;;;;12.40;10.65;;;6.70;59.70;;;;;;4946960;28;20066;-35
2021/03/07 12:01:33;;;;;;;14.27;11.32;;;6.90;59.90;;;;;;4964721;28;20055;-36
2021/03/07 12:03:59;;;;;;;12.63;11.18;;;7.00;58.00;;;;;;4947173;28;20039;-35
2021/03/07 12:06:25;;;;;;;15.43;13.43;;;7.20;57.80;;;;;;4959241;28;20047;-36
2021/03/07 12:08:51;;;;;;;15.50;12.68;;;7.40;58.70;;;;;;4961774;28;20051;-35
2021/03/07 12:11:18;;;;;;;13.20;11.40;;;7.50;57.10;;;;;;4957885;28;20850;-36
2021/03/07 12:13:44;;;;;;;13.90;11.57;;;7.50;56.70;;;;;;4963505;28;20058;-36
2021/03/07 12:16:10;;;;;;;13.55;11.60;;;7.40;56.90;;;;;;4941764;28;20043;-36
2021/03/07 12:18:37;;;;;;;12.75;10.88;;;7.40;57.10;;;;;;4955948;28;20235;-35
2021/03/07 12:21:05;;;;;;;15.07;11.55;;;7.30;56.80;;;;;;4972222;28;20051;-35
2021/03/07 12:23:31;;;;;;;16.25;13.70;;;7.40;57.30;;;;;;4956963;28;20047;-35
2021/03/07 12:25:57;;;;;;;12.10;10.38;;;7.40;56.00;;;;;;4961913;28;20474;-35
2021/03/07 12:28:23;;;;;;;16.23;12.20;;;7.30;56.40;;;;;;4955841;28;20043;-35
2021/03/07 12:30:49;;;;;;;14.98;11.73;;;7.30;56.80;;;;;;4943688;28;20789;-36
2021/03/07 12:33:15;;;;;;;15.60;11.13;;;7.40;56.20;;;;;;4964178;28;20066;-37
2021/03/07 12:35:42;;;;;;;15.43;11.98;;;7.30;56.30;;;;;;4957285;28;20047;-36
2021/03/07 12:38:08;;;;;;;13.05;11.10;;;7.20;56.10;;;;;;4950465;28;20122;-36
2021/03/07 12:40:34;;;;;;;16.75;11.65;;;7.20;55.50;;;;;;4958271;28;20662;-36
2021/03/07 12:43:00;;;;;;;12.02;10.68;;;7.40;56.40;;;;;;4948893;28;20508;-36
2021/03/07 12:45:26;;;;;;;14.45;11.80;;;7.40;56.40;;;;;;4966740;28;20244;-36
2021/03/07 12:47:52;;;;;;;13.77;11.35;;;7.20;56.40;;;;;;4953681;28;20223;-36
2021/03/07 12:50:18;;;;;;;14.05;11.45;;;7.10;56.60;;;;;;4969601;28;20137;-36
2021/03/07 12:52:43;;;;;;;12.68;11.07;;;6.90;56.80;;;;;;4966021;28;20091;-35
2021/03/07 12:55:09;;;;;;;15.77;12.20;;;6.90;57.10;;;;;;4966529;28;20051;-36
2021/03/07 12:57:35;;;;;;;13.23;11.82;;;6.80;57.40;;;;;;4955625;28;20062;-36
2021/03/07 13:00:03;;;;;;;15.82;11.85;;;6.80;58.00;;;;;;4979851;28;20163;-36
2021/03/07 13:02:29;;;;;;;14.55;11.38;;;6.90;58.30;;;;;;4970670;28;20085;-36
2021/03/07 13:04:54;;;;;;;16.05;12.63;;;7.00;58.80;;;;;;4981476;28;20466;-35
2021/03/07 13:07:20;;;;;;;14.40;12.18;;;7.10;58.10;;;;;;4957648;28;20059;-35
2021/03/07 13:09:46;;;;;;;15.50;12.48;;;7.00;58.20;;;;;;4941236;28;20129;-36
2021/03/07 13:12:13;;;;;;;14.02;11.43;;;7.10;59.30;;;;;;4964760;28;20359;-35
2021/03/07 13:14:39;;;;;;;17.38;13.00;;;7.00;58.20;;;;;;4965954;28;20051;-36
2021/03/07 13:17:04;;;;;;;15.98;11.35;;;6.90;58.60;;;;;;4964758;28;20051;-36
2021/03/07 13:19:30;;;;;;;17.52;12.95;;;6.80;59.50;;;;;;4961835;28;20451;-35